sensor_id;sensor_type;location;lat;lon;timestamp;temperature;humidity
71563;DHT22;59391;52.504;13.438;2023-05-08T00:01:56;11.70;54.80
71563;DHT22;59391;52.504;13.438;2023-05-08T00:04:21;11.60;55.00
71563;DHT22;59391;52.504;13.438;2023-05-08T00:06:47;11.60;55.00
71563;DHT22;59391;52.504;13.438;2023-05-08T00:09:13;11.50;55.10
71563;DHT22;59391;52.504;13.438;2023-05-08T00:11:38;11.50;55.20
71563;DHT22;59391;52.504;13.438;2023-05-08T00:14:04;11.50;55.30
71563;DHT22;59391;52.504;13.438;2023-05-08T00:16:30;11.40;55.40
71563;DHT22;59391;52.504;13.438;2023-05-08T00:18:56;11.40;55.60
71563;DHT22;59391;52.504;13.438;2023-05-08T00:21:22;11.30;55.70
71563;DHT22;59391;52.504;13.438;2023-05-08T00:23:47;11.30;55.90
71563;DHT22;59391;52.504;13.438;2023-05-08T00:26:13;11.30;55.90
71563;DHT22;59391;52.504;13.438;2023-05-08T00:28:39;11.20;55.90
71563;DHT22;59391;52.504;13.438;2023-05-08T00:31:04;11.20;56.10
71563;DHT22;59391;52.504;13.438;2023-05-08T00:33:30;11.10;56.40
71563;DHT22;59391;52.504;13.438;2023-05-08T00:36:00;11.10;56.50
71563;DHT22;59391;52.504;13.438;2023-05-08T00:38:32;11.10;56.70
71563;DHT22;59391;52.504;13.438;2023-05-08T00:40:58;11.00;57.00
71563;DHT22;59391;52.504;13.438;2023-05-08T00:43:25;11.00;57.20
71563;DHT22;59391;52.504;13.438;2023-05-08T00:45:53;10.90;57.20
71563;DHT22;59391;52.504;13.438;2023-05-08T00:48:21;10.90;57.30
71563;DHT22;59391;52.504;13.438;2023-05-08T00:50:49;10.90;57.20
71563;DHT22;59391;52.504;13.438;2023-05-08T00:53:16;10.80;57.30
71563;DHT22;59391;52.504;13.438;2023-05-08T00:55:43;10.80;57.40
71563;DHT22;59391;52.504;13.438;2023-05-08T00:58:10;10.80;57.30
71563;DHT22;59391;52.504;13.438;2023-05-08T01:00:38;10.70;57.30
71563;DHT22;59391;52.504;13.438;2023-05-08T01:03:06;10.70;57.30
71563;DHT22;59391;52.504;13.438;2023-05-08T01:05:34;10.70;57.40
71563;DHT22;59391;52.504;13.438;2023-05-08T01:08:00;10.70;57.40
71563;DHT22;59391;52.504;13.438;2023-05-08T01:10:32;10.60;57.40
71563;DHT22;59391;52.504;13.438;2023-05-08T01:13:17;10.60;57.70
71563;DHT22;59391;52.504;13.438;2023-05-08T01:16:14;10.50;57.60
71563;DHT22;59391;52.504;13.438;2023-05-08T01:22:37;10.50;57.70
71563;DHT22;59391;52.504;13.438;2023-05-08T01:31:48;10.40;58.10
71563;DHT22;59391;52.504;13.438;2023-05-08T01:34:31;10.40;58.10
71563;DHT22;59391;52.504;13.438;2023-05-08T01:37:27;10.40;58.00
71563;DHT22;59391;52.504;13.438;2023-05-08T01:40:49;10.30;58.20
71563;DHT22;59391;52.504;13.438;2023-05-08T01:43:30;10.30;58.10
71563;DHT22;59391;52.504;13.438;2023-05-08T01:46:08;10.30;58.30
71563;DHT22;59391;52.504;13.438;2023-05-08T01:48:43;10.30;58.20
71563;DHT22;59391;52.504;13.438;2023-05-08T01:51:21;10.30;58.30
71563;DHT22;59391;52.504;13.438;2023-05-08T01:53:51;10.20;58.30
71563;DHT22;59391;52.504;13.438;2023-05-08T01:56:23;10.20;58.30
71563;DHT22;59391;52.504;13.438;2023-05-08T01:58:53;10.20;58.40
71563;DHT22;59391;52.504;13.438;2023-05-08T02:01:22;10.20;58.30
71563;DHT22;59391;52.504;13.438;2023-05-08T02:03:51;10.20;58.50
71563;DHT22;59391;52.504;13.438;2023-05-08T02:06:20;10.20;58.50
71563;DHT22;59391;52.504;13.438;2023-05-08T02:08:47;10.10;58.40
71563;DHT22;59391;52.504;13.438;2023-05-08T02:11:15;10.10;58.60
71563;DHT22;59391;52.504;13.438;2023-05-08T02:13:45;10.10;58.50
71563;DHT22;59391;52.504;13.438;2023-05-08T02:16:13;10.10;58.50
71563;DHT22;59391;52.504;13.438;2023-05-08T02:18:43;10.10;58.40
71563;DHT22;59391;52.504;13.438;2023-05-08T02:21:16;10.00;58.50
71563;DHT22;59391;52.504;13.438;2023-05-08T02:23:44;10.00;58.50
71563;DHT22;59391;52.504;13.438;2023-05-08T02:26:13;10.00;58.50
71563;DHT22;59391;52.504;13.438;2023-05-08T02:28:40;10.00;58.50
71563;DHT22;59391;52.504;13.438;2023-05-08T02:31:10;10.00;58.60
71563;DHT22;59391;52.504;13.438;2023-05-08T02:33:39;9.90;58.60
71563;DHT22;59391;52.504;13.438;2023-05-08T02:36:07;9.90;58.60
71563;DHT22;59391;52.504;13.438;2023-05-08T02:38:36;9.90;58.70
71563;DHT22;59391;52.504;13.438;2023-05-08T02:41:04;9.80;58.70
71563;DHT22;59391;52.504;13.438;2023-05-08T02:43:31;9.80;58.70
71563;DHT22;59391;52.504;13.438;2023-05-08T02:46:10;9.80;58.90
71563;DHT22;59391;52.504;13.438;2023-05-08T02:48:55;9.80;58.90
71563;DHT22;59391;52.504;13.438;2023-05-08T02:51:52;9.70;58.90
71563;DHT22;59391;52.504;13.438;2023-05-08T02:54:42;9.70;58.90
71563;DHT22;59391;52.504;13.438;2023-05-08T02:57:42;9.70;58.90
71563;DHT22;59391;52.504;13.438;2023-05-08T03:00:16;9.60;58.90
71563;DHT22;59391;52.504;13.438;2023-05-08T03:02:52;9.60;58.90
71563;DHT22;59391;52.504;13.438;2023-05-08T03:05:29;9.60;59.00
71563;DHT22;59391;52.504;13.438;2023-05-08T03:07:59;9.60;59.10
71563;DHT22;59391;52.504;13.438;2023-05-08T03:10:32;9.60;59.10
71563;DHT22;59391;52.504;13.438;2023-05-08T03:13:01;9.50;59.20
71563;DHT22;59391;52.504;13.438;2023-05-08T03:15:41;9.50;59.20
71563;DHT22;59391;52.504;13.438;2023-05-08T03:18:13;9.50;59.20
71563;DHT22;59391;52.504;13.438;2023-05-08T03:20:45;9.50;59.10
71563;DHT22;59391;52.504;13.438;2023-05-08T03:23:17;9.40;59.20
71563;DHT22;59391;52.504;13.438;2023-05-08T03:25:44;9.40;59.20
71563;DHT22;59391;52.504;13.438;2023-05-08T03:28:10;9.40;59.50
71563;DHT22;59391;52.504;13.438;2023-05-08T03:30:39;9.40;59.60
71563;DHT22;59391;52.504;13.438;2023-05-08T03:33:07;9.30;59.60
71563;DHT22;59391;52.504;13.438;2023-05-08T03:35:38;9.30;59.70
71563;DHT22;59391;52.504;13.438;2023-05-08T03:38:05;9.30;59.70
71563;DHT22;59391;52.504;13.438;2023-05-08T03:40:33;9.20;59.80
71563;DHT22;59391;52.504;13.438;2023-05-08T03:43:05;9.20;60.00
71563;DHT22;59391;52.504;13.438;2023-05-08T03:45:37;9.20;60.00
71563;DHT22;59391;52.504;13.438;2023-05-08T03:48:05;9.20;60.10
71563;DHT22;59391;52.504;13.438;2023-05-08T03:50:35;9.20;60.20
71563;DHT22;59391;52.504;13.438;2023-05-08T03:53:02;9.20;60.30
71563;DHT22;59391;52.504;13.438;2023-05-08T03:55:29;9.10;60.50
71563;DHT22;59391;52.504;13.438;2023-05-08T03:58:04;9.10;60.50
71563;DHT22;59391;52.504;13.438;2023-05-08T04:01:07;9.10;60.60
71563;DHT22;59391;52.504;13.438;2023-05-08T04:04:29;9.10;60.80
71563;DHT22;59391;52.504;13.438;2023-05-08T04:12:20;9.00;61.00
71563;DHT22;59391;52.504;13.438;2023-05-08T04:14:54;9.00;61.20
71563;DHT22;59391;52.504;13.438;2023-05-08T04:17:42;9.00;61.10
71563;DHT22;59391;52.504;13.438;2023-05-08T04:20:16;9.00;61.40
71563;DHT22;59391;52.504;13.438;2023-05-08T04:22:46;9.00;61.20
71563;DHT22;59391;52.504;13.438;2023-05-08T04:25:16;9.00;61.10
71563;DHT22;59391;52.504;13.438;2023-05-08T04:27:44;9.00;61.10
71563;DHT22;59391;52.504;13.438;2023-05-08T04:30:11;9.00;61.00
71563;DHT22;59391;52.504;13.438;2023-05-08T04:32:37;9.00;61.20
71563;DHT22;59391;52.504;13.438;2023-05-08T04:35:04;9.00;61.10
71563;DHT22;59391;52.504;13.438;2023-05-08T04:37:30;9.00;61.20
71563;DHT22;59391;52.504;13.438;2023-05-08T04:39:56;9.00;61.30
71563;DHT22;59391;52.504;13.438;2023-05-08T04:42:23;9.00;61.20
71563;DHT22;59391;52.504;13.438;2023-05-08T04:44:50;9.00;61.50
71563;DHT22;59391;52.504;13.438;2023-05-08T04:47:16;9.00;61.40
71563;DHT22;59391;52.504;13.438;2023-05-08T04:49:42;9.00;61.20
71563;DHT22;59391;52.504;13.438;2023-05-08T04:52:08;9.00;61.10
71563;DHT22;59391;52.504;13.438;2023-05-08T04:54:34;9.00;60.90
71563;DHT22;59391;52.504;13.438;2023-05-08T04:57:00;9.00;60.70
71563;DHT22;59391;52.504;13.438;2023-05-08T04:59:26;9.00;60.70
71563;DHT22;59391;52.504;13.438;2023-05-08T05:01:52;9.00;60.70
71563;DHT22;59391;52.504;13.438;2023-05-08T05:04:18;9.10;60.70
71563;DHT22;59391;52.504;13.438;2023-05-08T05:06:43;9.10;60.60
71563;DHT22;59391;52.504;13.438;2023-05-08T05:09:09;9.10;60.50
71563;DHT22;59391;52.504;13.438;2023-05-08T05:11:36;9.10;60.50
71563;DHT22;59391;52.504;13.438;2023-05-08T05:14:01;9.10;60.30
71563;DHT22;59391;52.504;13.438;2023-05-08T05:16:27;9.10;60.20
71563;DHT22;59391;52.504;13.438;2023-05-08T05:18:53;9.20;60.10
71563;DHT22;59391;52.504;13.438;2023-05-08T05:21:19;9.20;60.10
71563;DHT22;59391;52.504;13.438;2023-05-08T05:23:44;9.20;59.90
71563;DHT22;59391;52.504;13.438;2023-05-08T05:26:10;9.30;59.80
71563;DHT22;59391;52.504;13.438;2023-05-08T05:28:36;9.30;59.70
71563;DHT22;59391;52.504;13.438;2023-05-08T05:31:02;9.30;59.70
71563;DHT22;59391;52.504;13.438;2023-05-08T05:33:28;9.40;59.50
71563;DHT22;59391;52.504;13.438;2023-05-08T05:35:54;9.40;59.30
71563;DHT22;59391;52.504;13.438;2023-05-08T05:38:19;9.50;59.30
71563;DHT22;59391;52.504;13.438;2023-05-08T05:40:45;9.50;59.20
71563;DHT22;59391;52.504;13.438;2023-05-08T05:43:11;9.60;58.80
71563;DHT22;59391;52.504;13.438;2023-05-08T05:45:37;9.60;58.70
71563;DHT22;59391;52.504;13.438;2023-05-08T05:48:04;9.70;58.20
71563;DHT22;59391;52.504;13.438;2023-05-08T05:50:30;9.80;57.70
71563;DHT22;59391;52.504;13.438;2023-05-08T05:52:56;9.80;57.50
71563;DHT22;59391;52.504;13.438;2023-05-08T05:55:22;9.90;57.50
71563;DHT22;59391;52.504;13.438;2023-05-08T05:57:48;10.00;57.10
71563;DHT22;59391;52.504;13.438;2023-05-08T06:00:14;10.00;56.60
71563;DHT22;59391;52.504;13.438;2023-05-08T06:02:41;10.10;55.90
71563;DHT22;59391;52.504;13.438;2023-05-08T06:05:08;10.10;56.00
71563;DHT22;59391;52.504;13.438;2023-05-08T06:07:34;10.10;55.50
71563;DHT22;59391;52.504;13.438;2023-05-08T06:10:00;10.10;55.40
71563;DHT22;59391;52.504;13.438;2023-05-08T06:12:26;10.20;55.80
71563;DHT22;59391;52.504;13.438;2023-05-08T06:14:52;10.30;55.80
71563;DHT22;59391;52.504;13.438;2023-05-08T06:17:19;10.30;55.20
71563;DHT22;59391;52.504;13.438;2023-05-08T06:19:45;10.40;54.00
71563;DHT22;59391;52.504;13.438;2023-05-08T06:22:15;10.40;54.00
71563;DHT22;59391;52.504;13.438;2023-05-08T06:24:42;10.50;53.90
71563;DHT22;59391;52.504;13.438;2023-05-08T06:27:08;10.50;53.80
71563;DHT22;59391;52.504;13.438;2023-05-08T06:29:34;10.60;53.70
71563;DHT22;59391;52.504;13.438;2023-05-08T06:32:00;10.60;53.00
71563;DHT22;59391;52.504;13.438;2023-05-08T06:34:25;10.70;52.80
71563;DHT22;59391;52.504;13.438;2023-05-08T06:36:51;10.70;52.40
71563;DHT22;59391;52.504;13.438;2023-05-08T06:39:17;10.80;52.20
71563;DHT22;59391;52.504;13.438;2023-05-08T06:41:46;10.90;51.80
71563;DHT22;59391;52.504;13.438;2023-05-08T06:44:13;10.90;51.90
71563;DHT22;59391;52.504;13.438;2023-05-08T06:46:38;11.00;51.40
71563;DHT22;59391;52.504;13.438;2023-05-08T06:49:04;11.10;51.20
71563;DHT22;59391;52.504;13.438;2023-05-08T06:51:30;11.10;51.00
71563;DHT22;59391;52.504;13.438;2023-05-08T06:53:56;11.20;50.50
71563;DHT22;59391;52.504;13.438;2023-05-08T06:56:21;11.20;50.80
71563;DHT22;59391;52.504;13.438;2023-05-08T06:58:47;11.30;50.90
71563;DHT22;59391;52.504;13.438;2023-05-08T07:01:12;11.40;50.60
71563;DHT22;59391;52.504;13.438;2023-05-08T07:03:39;11.40;50.30
71563;DHT22;59391;52.504;13.438;2023-05-08T07:06:06;11.50;50.00
71563;DHT22;59391;52.504;13.438;2023-05-08T07:08:35;11.50;49.00
71563;DHT22;59391;52.504;13.438;2023-05-08T07:11:02;11.60;49.50
71563;DHT22;59391;52.504;13.438;2023-05-08T07:13:28;11.70;49.30
71563;DHT22;59391;52.504;13.438;2023-05-08T07:15:54;11.80;49.40
71563;DHT22;59391;52.504;13.438;2023-05-08T07:18:20;11.80;49.00
71563;DHT22;59391;52.504;13.438;2023-05-08T07:20:45;11.90;48.50
71563;DHT22;59391;52.504;13.438;2023-05-08T07:23:11;12.00;48.20
71563;DHT22;59391;52.504;13.438;2023-05-08T07:25:37;12.00;47.80
71563;DHT22;59391;52.504;13.438;2023-05-08T07:28:02;12.10;47.10
71563;DHT22;59391;52.504;13.438;2023-05-08T07:30:28;12.20;47.00
71563;DHT22;59391;52.504;13.438;2023-05-08T07:32:54;12.30;47.10
71563;DHT22;59391;52.504;13.438;2023-05-08T07:35:19;12.40;46.90
71563;DHT22;59391;52.504;13.438;2023-05-08T07:37:45;12.50;46.50
71563;DHT22;59391;52.504;13.438;2023-05-08T07:40:11;12.60;45.90
71563;DHT22;59391;52.504;13.438;2023-05-08T07:42:40;12.70;45.20
71563;DHT22;59391;52.504;13.438;2023-05-08T07:45:11;12.80;44.70
71563;DHT22;59391;52.504;13.438;2023-05-08T07:47:51;12.90;44.30
71563;DHT22;59391;52.504;13.438;2023-05-08T07:50:22;13.00;43.60
71563;DHT22;59391;52.504;13.438;2023-05-08T07:52:49;13.10;43.40
71563;DHT22;59391;52.504;13.438;2023-05-08T07:55:15;13.20;43.10
71563;DHT22;59391;52.504;13.438;2023-05-08T07:57:42;13.20;42.90
71563;DHT22;59391;52.504;13.438;2023-05-08T08:00:10;13.30;42.50
71563;DHT22;59391;52.504;13.438;2023-05-08T08:02:37;13.40;42.40
71563;DHT22;59391;52.504;13.438;2023-05-08T08:05:04;13.50;42.20
71563;DHT22;59391;52.504;13.438;2023-05-08T08:07:30;13.60;42.50
71563;DHT22;59391;52.504;13.438;2023-05-08T08:09:59;13.70;42.20
71563;DHT22;59391;52.504;13.438;2023-05-08T08:12:26;13.80;41.40
71563;DHT22;59391;52.504;13.438;2023-05-08T08:14:53;13.90;41.40
71563;DHT22;59391;52.504;13.438;2023-05-08T08:17:19;14.00;41.20
71563;DHT22;59391;52.504;13.438;2023-05-08T08:19:45;14.10;40.70
71563;DHT22;59391;52.504;13.438;2023-05-08T08:22:10;14.20;40.70
71563;DHT22;59391;52.504;13.438;2023-05-08T08:24:36;14.30;40.30
71563;DHT22;59391;52.504;13.438;2023-05-08T08:27:02;14.40;39.80
71563;DHT22;59391;52.504;13.438;2023-05-08T08:29:28;14.50;39.70
71563;DHT22;59391;52.504;13.438;2023-05-08T08:31:54;14.60;39.30
71563;DHT22;59391;52.504;13.438;2023-05-08T08:34:20;14.70;37.10
71563;DHT22;59391;52.504;13.438;2023-05-08T08:36:46;14.80;37.20
71563;DHT22;59391;52.504;13.438;2023-05-08T08:39:12;15.00;37.70
71563;DHT22;59391;52.504;13.438;2023-05-08T08:41:38;15.20;36.90
71563;DHT22;59391;52.504;13.438;2023-05-08T08:44:05;15.50;36.10
71563;DHT22;59391;52.504;13.438;2023-05-08T08:46:31;15.80;35.90
71563;DHT22;59391;52.504;13.438;2023-05-08T08:49:02;16.10;35.70
71563;DHT22;59391;52.504;13.438;2023-05-08T08:51:35;16.30;35.20
71563;DHT22;59391;52.504;13.438;2023-05-08T08:54:12;16.70;34.90
71563;DHT22;59391;52.504;13.438;2023-05-08T08:56:43;17.00;34.10
71563;DHT22;59391;52.504;13.438;2023-05-08T08:59:15;17.30;34.10
71563;DHT22;59391;52.504;13.438;2023-05-08T09:01:43;17.60;33.30
71563;DHT22;59391;52.504;13.438;2023-05-08T09:04:11;17.80;32.40
71563;DHT22;59391;52.504;13.438;2023-05-08T09:06:37;18.10;32.50
71563;DHT22;59391;52.504;13.438;2023-05-08T09:09:05;18.30;32.00
71563;DHT22;59391;52.504;13.438;2023-05-08T09:11:31;18.50;31.70
71563;DHT22;59391;52.504;13.438;2023-05-08T09:13:57;18.60;31.70
71563;DHT22;59391;52.504;13.438;2023-05-08T09:16:24;18.80;31.10
71563;DHT22;59391;52.504;13.438;2023-05-08T09:18:52;18.90;31.20
71563;DHT22;59391;52.504;13.438;2023-05-08T09:21:17;19.00;30.50
71563;DHT22;59391;52.504;13.438;2023-05-08T09:24:02;19.00;30.20
71563;DHT22;59391;52.504;13.438;2023-05-08T09:26:35;19.10;30.50
71563;DHT22;59391;52.504;13.438;2023-05-08T09:29:20;19.20;30.20
71563;DHT22;59391;52.504;13.438;2023-05-08T09:31:52;19.20;30.20
71563;DHT22;59391;52.504;13.438;2023-05-08T09:34:29;19.30;29.50
71563;DHT22;59391;52.504;13.438;2023-05-08T09:39:30;19.50;28.70
71563;DHT22;59391;52.504;13.438;2023-05-08T09:44:27;19.60;28.20
71563;DHT22;59391;52.504;13.438;2023-05-08T09:47:09;19.60;28.80
71563;DHT22;59391;52.504;13.438;2023-05-08T09:49:44;19.70;29.20
71563;DHT22;59391;52.504;13.438;2023-05-08T09:52:24;19.90;29.30
71563;DHT22;59391;52.504;13.438;2023-05-08T09:55:01;20.00;28.60
71563;DHT22;59391;52.504;13.438;2023-05-08T09:57:33;20.10;28.10
71563;DHT22;59391;52.504;13.438;2023-05-08T10:00:11;20.20;28.00
71563;DHT22;59391;52.504;13.438;2023-05-08T10:02:40;20.30;28.60
71563;DHT22;59391;52.504;13.438;2023-05-08T10:05:23;20.40;28.30
71563;DHT22;59391;52.504;13.438;2023-05-08T10:07:54;20.50;28.50
71563;DHT22;59391;52.504;13.438;2023-05-08T10:10:27;20.60;28.10
71563;DHT22;59391;52.504;13.438;2023-05-08T10:12:56;20.70;27.90
71563;DHT22;59391;52.504;13.438;2023-05-08T10:15:24;20.90;27.00
71563;DHT22;59391;52.504;13.438;2023-05-08T10:18:19;20.90;26.60
71563;DHT22;59391;52.504;13.438;2023-05-08T10:20:47;21.00;26.80
71563;DHT22;59391;52.504;13.438;2023-05-08T10:23:15;21.10;26.40
71563;DHT22;59391;52.504;13.438;2023-05-08T10:25:46;21.20;26.40
71563;DHT22;59391;52.504;13.438;2023-05-08T10:28:26;21.30;26.30
71563;DHT22;59391;52.504;13.438;2023-05-08T10:31:02;21.40;25.70
71563;DHT22;59391;52.504;13.438;2023-05-08T10:33:30;21.50;25.30
71563;DHT22;59391;52.504;13.438;2023-05-08T10:35:59;21.60;25.70
71563;DHT22;59391;52.504;13.438;2023-05-08T10:38:24;21.80;25.70
71563;DHT22;59391;52.504;13.438;2023-05-08T10:40:52;21.90;26.00
71563;DHT22;59391;52.504;13.438;2023-05-08T10:43:23;21.90;25.20
71563;DHT22;59391;52.504;13.438;2023-05-08T10:45:51;22.10;25.80
71563;DHT22;59391;52.504;13.438;2023-05-08T10:48:32;22.20;25.60
71563;DHT22;59391;52.504;13.438;2023-05-08T10:51:22;22.40;25.70
71563;DHT22;59391;52.504;13.438;2023-05-08T10:53:56;22.60;25.70
71563;DHT22;59391;52.504;13.438;2023-05-08T10:56:27;22.70;24.60
71563;DHT22;59391;52.504;13.438;2023-05-08T10:58:57;22.90;25.10
71563;DHT22;59391;52.504;13.438;2023-05-08T11:01:24;23.00;25.00
71563;DHT22;59391;52.504;13.438;2023-05-08T11:03:51;23.00;25.00
71563;DHT22;59391;52.504;13.438;2023-05-08T11:06:42;23.10;25.00
71563;DHT22;59391;52.504;13.438;2023-05-08T11:09:17;23.10;25.10
71563;DHT22;59391;52.504;13.438;2023-05-08T11:11:53;23.20;24.80
71563;DHT22;59391;52.504;13.438;2023-05-08T11:14:30;23.30;24.80
71563;DHT22;59391;52.504;13.438;2023-05-08T11:17:01;23.40;24.40
71563;DHT22;59391;52.504;13.438;2023-05-08T11:19:28;23.60;24.60
71563;DHT22;59391;52.504;13.438;2023-05-08T11:24:53;23.70;23.70
71563;DHT22;59391;52.504;13.438;2023-05-08T11:30:33;23.90;24.50
71563;DHT22;59391;52.504;13.438;2023-05-08T11:35:53;24.00;23.10
71563;DHT22;59391;52.504;13.438;2023-05-08T11:38:27;24.00;23.10
71563;DHT22;59391;52.504;13.438;2023-05-08T11:41:02;24.10;23.10
71563;DHT22;59391;52.504;13.438;2023-05-08T11:43:44;24.10;22.80
71563;DHT22;59391;52.504;13.438;2023-05-08T11:46:22;24.10;23.00
71563;DHT22;59391;52.504;13.438;2023-05-08T11:48:58;24.20;22.90
71563;DHT22;59391;52.504;13.438;2023-05-08T11:51:32;24.20;23.00
71563;DHT22;59391;52.504;13.438;2023-05-08T11:54:00;24.20;22.70
71563;DHT22;59391;52.504;13.438;2023-05-08T11:56:26;24.30;23.40
71563;DHT22;59391;52.504;13.438;2023-05-08T11:59:03;24.30;23.20
71563;DHT22;59391;52.504;13.438;2023-05-08T12:01:30;24.30;21.80
71563;DHT22;59391;52.504;13.438;2023-05-08T12:04:08;24.50;22.00
71563;DHT22;59391;52.504;13.438;2023-05-08T12:06:37;24.50;21.50
71563;DHT22;59391;52.504;13.438;2023-05-08T12:09:17;24.60;21.90
71563;DHT22;59391;52.504;13.438;2023-05-08T12:11:44;24.60;21.90
71563;DHT22;59391;52.504;13.438;2023-05-08T12:14:11;24.70;22.20
71563;DHT22;59391;52.504;13.438;2023-05-08T12:16:38;24.70;22.30
71563;DHT22;59391;52.504;13.438;2023-05-08T12:19:12;24.80;22.00
71563;DHT22;59391;52.504;13.438;2023-05-08T12:21:44;24.80;22.20
71563;DHT22;59391;52.504;13.438;2023-05-08T12:24:12;24.70;21.60
71563;DHT22;59391;52.504;13.438;2023-05-08T12:26:38;24.80;22.30
71563;DHT22;59391;52.504;13.438;2023-05-08T12:29:07;24.80;22.10
71563;DHT22;59391;52.504;13.438;2023-05-08T12:31:36;24.80;21.90
71563;DHT22;59391;52.504;13.438;2023-05-08T12:34:05;24.80;21.80
71563;DHT22;59391;52.504;13.438;2023-05-08T12:36:35;24.70;21.80
71563;DHT22;59391;52.504;13.438;2023-05-08T12:39:14;24.50;21.80
71563;DHT22;59391;52.504;13.438;2023-05-08T12:41:46;24.40;22.10
71563;DHT22;59391;52.504;13.438;2023-05-08T12:44:23;24.20;21.80
71563;DHT22;59391;52.504;13.438;2023-05-08T12:46:55;23.90;21.50
71563;DHT22;59391;52.504;13.438;2023-05-08T12:49:31;23.80;22.10
71563;DHT22;59391;52.504;13.438;2023-05-08T12:54:38;23.50;22.10
71563;DHT22;59391;52.504;13.438;2023-05-08T12:57:16;23.40;22.60
71563;DHT22;59391;52.504;13.438;2023-05-08T12:59:43;23.30;22.80
71563;DHT22;59391;52.504;13.438;2023-05-08T13:02:20;23.20;22.10
71563;DHT22;59391;52.504;13.438;2023-05-08T13:04:52;23.10;22.70
71563;DHT22;59391;52.504;13.438;2023-05-08T13:07:20;23.10;23.60
71563;DHT22;59391;52.504;13.438;2023-05-08T13:09:59;23.00;22.90
71563;DHT22;59391;52.504;13.438;2023-05-08T13:12:30;23.00;22.80
71563;DHT22;59391;52.504;13.438;2023-05-08T13:14:56;23.00;22.30
71563;DHT22;59391;52.504;13.438;2023-05-08T13:17:21;23.00;22.40
71563;DHT22;59391;52.504;13.438;2023-05-08T13:19:47;23.00;22.50
71563;DHT22;59391;52.504;13.438;2023-05-08T13:22:12;23.00;22.20
71563;DHT22;59391;52.504;13.438;2023-05-08T13:24:38;23.00;22.60
71563;DHT22;59391;52.504;13.438;2023-05-08T13:27:04;23.10;22.50
71563;DHT22;59391;52.504;13.438;2023-05-08T13:29:32;23.10;22.20
71563;DHT22;59391;52.504;13.438;2023-05-08T13:31:57;23.00;22.40
71563;DHT22;59391;52.504;13.438;2023-05-08T13:34:23;23.00;22.30
71563;DHT22;59391;52.504;13.438;2023-05-08T13:36:49;23.00;22.60
71563;DHT22;59391;52.504;13.438;2023-05-08T13:39:15;22.90;22.00
71563;DHT22;59391;52.504;13.438;2023-05-08T13:41:41;22.80;22.60
71563;DHT22;59391;52.504;13.438;2023-05-08T13:44:06;22.80;23.00
71563;DHT22;59391;52.504;13.438;2023-05-08T13:46:32;22.90;22.90
71563;DHT22;59391;52.504;13.438;2023-05-08T13:48:57;22.80;23.10
71563;DHT22;59391;52.504;13.438;2023-05-08T13:51:23;22.80;22.90
71563;DHT22;59391;52.504;13.438;2023-05-08T13:53:49;22.80;23.20
71563;DHT22;59391;52.504;13.438;2023-05-08T13:56:14;22.80;22.60
71563;DHT22;59391;52.504;13.438;2023-05-08T13:58:40;22.70;22.50
71563;DHT22;59391;52.504;13.438;2023-05-08T14:01:05;22.70;22.20
71563;DHT22;59391;52.504;13.438;2023-05-08T14:03:31;22.60;22.30
71563;DHT22;59391;52.504;13.438;2023-05-08T14:05:56;22.60;22.40
71563;DHT22;59391;52.504;13.438;2023-05-08T14:08:22;22.60;22.60
71563;DHT22;59391;52.504;13.438;2023-05-08T14:10:48;22.50;22.80
71563;DHT22;59391;52.504;13.438;2023-05-08T14:13:13;22.30;21.70
71563;DHT22;59391;52.504;13.438;2023-05-08T14:15:39;22.20;22.10
71563;DHT22;59391;52.504;13.438;2023-05-08T14:18:06;22.10;22.40
71563;DHT22;59391;52.504;13.438;2023-05-08T14:20:31;22.00;22.50
71563;DHT22;59391;52.504;13.438;2023-05-08T14:22:57;22.00;22.10
71563;DHT22;59391;52.504;13.438;2023-05-08T14:25:23;22.00;22.80
71563;DHT22;59391;52.504;13.438;2023-05-08T14:27:48;22.00;22.30
71563;DHT22;59391;52.504;13.438;2023-05-08T14:30:14;22.00;22.30
71563;DHT22;59391;52.504;13.438;2023-05-08T14:32:39;21.90;22.60
71563;DHT22;59391;52.504;13.438;2023-05-08T14:35:08;22.00;22.80
71563;DHT22;59391;52.504;13.438;2023-05-08T14:37:34;22.00;22.40
71563;DHT22;59391;52.504;13.438;2023-05-08T14:40:00;22.00;22.80
71563;DHT22;59391;52.504;13.438;2023-05-08T14:42:25;22.10;22.50
71563;DHT22;59391;52.504;13.438;2023-05-08T14:44:51;22.00;22.70
71563;DHT22;59391;52.504;13.438;2023-05-08T14:47:17;22.00;22.20
71563;DHT22;59391;52.504;13.438;2023-05-08T14:49:42;22.10;22.30
71563;DHT22;59391;52.504;13.438;2023-05-08T14:52:08;22.10;22.10
71563;DHT22;59391;52.504;13.438;2023-05-08T14:54:34;22.20;22.30
71563;DHT22;59391;52.504;13.438;2023-05-08T14:56:59;22.10;22.10
71563;DHT22;59391;52.504;13.438;2023-05-08T14:59:25;22.10;22.20
71563;DHT22;59391;52.504;13.438;2023-05-08T15:01:50;22.20;22.50
71563;DHT22;59391;52.504;13.438;2023-05-08T15:04:16;22.10;22.60
71563;DHT22;59391;52.504;13.438;2023-05-08T15:06:42;22.20;22.50
71563;DHT22;59391;52.504;13.438;2023-05-08T15:09:08;22.20;22.00
71563;DHT22;59391;52.504;13.438;2023-05-08T15:11:34;22.20;22.50
71563;DHT22;59391;52.504;13.438;2023-05-08T15:14:03;22.20;22.20
71563;DHT22;59391;52.504;13.438;2023-05-08T15:16:30;22.10;22.60
71563;DHT22;59391;52.504;13.438;2023-05-08T15:18:56;22.20;23.20
71563;DHT22;59391;52.504;13.438;2023-05-08T15:21:22;22.20;23.50
71563;DHT22;59391;52.504;13.438;2023-05-08T15:23:51;22.20;23.60
71563;DHT22;59391;52.504;13.438;2023-05-08T15:26:21;22.20;23.40
71563;DHT22;59391;52.504;13.438;2023-05-08T15:28:47;22.20;22.50
71563;DHT22;59391;52.504;13.438;2023-05-08T15:31:13;22.20;22.80
71563;DHT22;59391;52.504;13.438;2023-05-08T15:33:38;22.20;22.70
71563;DHT22;59391;52.504;13.438;2023-05-08T15:36:10;22.20;23.10
71563;DHT22;59391;52.504;13.438;2023-05-08T15:38:36;22.20;23.10
71563;DHT22;59391;52.504;13.438;2023-05-08T15:41:03;22.20;23.70
71563;DHT22;59391;52.504;13.438;2023-05-08T15:43:29;22.20;23.90
71563;DHT22;59391;52.504;13.438;2023-05-08T15:45:55;22.20;23.60
71563;DHT22;59391;52.504;13.438;2023-05-08T15:48:20;22.20;23.30
71563;DHT22;59391;52.504;13.438;2023-05-08T15:50:46;22.20;23.40
71563;DHT22;59391;52.504;13.438;2023-05-08T15:53:12;22.20;23.50
71563;DHT22;59391;52.504;13.438;2023-05-08T15:55:38;22.20;23.30
71563;DHT22;59391;52.504;13.438;2023-05-08T15:58:03;22.20;23.20
71563;DHT22;59391;52.504;13.438;2023-05-08T16:00:29;22.10;23.40
71563;DHT22;59391;52.504;13.438;2023-05-08T16:02:55;22.10;23.40
71563;DHT22;59391;52.504;13.438;2023-05-08T16:05:20;22.10;23.60
71563;DHT22;59391;52.504;13.438;2023-05-08T16:07:46;22.10;24.10